createdAt,value
2022-08-26T00:02:12.584Z,98384.00
2022-08-26T00:04:39.034Z,98380.06
2022-08-26T00:07:05.647Z,98383.94
2022-08-26T00:09:32.942Z,98383.94
2022-08-26T00:12:03.952Z,98377.47
2022-08-26T00:14:31.668Z,98375.69
2022-08-26T00:16:58.123Z,98383.53
2022-08-26T00:19:24.631Z,98382.56
2022-08-26T00:21:51.368Z,98373.91
2022-08-26T00:24:18.675Z,98379.91
2022-08-26T00:26:45.070Z,98368.50
2022-08-26T00:29:12.186Z,98367.28
2022-08-26T00:31:39.026Z,98374.56
2022-08-26T00:34:06.586Z,98369.31
2022-08-26T00:36:35.879Z,98375.22
2022-08-26T00:39:02.221Z,98379.34
2022-08-26T00:41:28.832Z,98376.81
2022-08-26T00:43:55.154Z,98373.53
2022-08-26T00:46:23.436Z,98372.16
2022-08-26T00:48:52.110Z,98372.16
2022-08-26T00:51:19.640Z,98370.84
2022-08-26T00:53:48.679Z,98371.00
2022-08-26T00:56:20.145Z,98365.44
2022-08-26T00:58:48.007Z,98366.16
2022-08-26T01:01:14.754Z,98367.28
2022-08-26T01:03:41.869Z,98364.31
2022-08-26T01:06:11.476Z,98365.81
2022-08-26T01:08:39.753Z,98356.47
2022-08-26T01:11:06.465Z,98366.53
2022-08-26T01:13:36.257Z,98364.34
2022-08-26T01:16:04.075Z,98360.31
2022-08-26T01:18:31.524Z,98360.72
2022-08-26T01:20:57.943Z,98367.41
2022-08-26T01:23:28.493Z,98366.72
2022-08-26T01:25:56.606Z,98363.16
2022-08-26T01:28:25.248Z,98361.84
2022-08-26T01:30:53.363Z,98357.81
2022-08-26T01:33:23.585Z,98354.19
2022-08-26T01:35:50.238Z,98357.16
2022-08-26T01:38:18.433Z,98357.56
2022-08-26T01:40:46.159Z,98359.72
2022-08-26T01:43:16.725Z,98358.06
2022-08-26T01:45:43.839Z,98357.44
2022-08-26T01:48:14.067Z,98356.41
2022-08-26T01:50:42.874Z,98350.78
2022-08-26T01:53:11.357Z,98347.06
2022-08-26T01:55:39.089Z,98356.41
2022-08-26T01:58:09.756Z,98357.38
2022-08-26T02:00:36.906Z,98345.81
2022-08-26T02:03:16.531Z,98353.50
2022-08-26T02:06:04.535Z,98358.88
2022-08-26T02:08:39.664Z,98352.88
2022-08-26T02:11:06.737Z,98359.50
2022-08-26T02:13:34.781Z,98358.88
2022-08-26T02:16:02.331Z,98356.00
2022-08-26T02:18:29.839Z,98354.25
2022-08-26T02:20:56.466Z,98352.41
2022-08-26T02:23:24.036Z,98345.03
2022-08-26T02:25:54.602Z,98345.84
2022-08-26T02:28:20.990Z,98343.84
2022-08-26T02:30:55.383Z,98351.00
2022-08-26T02:33:22.031Z,98353.97
2022-08-26T02:35:48.764Z,98351.78
2022-08-26T02:38:15.051Z,98343.91
2022-08-26T02:40:42.236Z,98352.41
2022-08-26T02:43:08.834Z,98348.25
2022-08-26T02:45:35.670Z,98349.91
2022-08-26T02:48:06.795Z,98340.94
2022-08-26T02:50:34.513Z,98343.66
2022-08-26T02:53:01.380Z,98346.69
2022-08-26T02:55:28.921Z,98350.72
2022-08-26T02:57:55.773Z,98348.88
2022-08-26T03:00:22.533Z,98342.97
2022-08-26T03:02:50.340Z,98344.06
2022-08-26T03:05:17.868Z,98342.50
2022-08-26T03:07:44.179Z,98342.31
2022-08-26T03:10:13.145Z,98341.00
2022-08-26T03:12:41.136Z,98339.28
2022-08-26T03:15:17.375Z,98330.41
2022-08-26T03:17:44.681Z,98332.53
2022-08-26T03:20:11.244Z,98332.16
2022-08-26T03:22:40.171Z,98326.25
2022-08-26T03:25:08.720Z,98328.84
2022-08-26T03:27:35.210Z,98320.75
2022-08-26T03:30:20.953Z,98326.25
2022-08-26T03:32:47.316Z,98321.81
2022-08-26T03:35:14.128Z,98324.00
2022-08-26T03:37:40.511Z,98322.94
2022-08-26T03:40:09.016Z,98327.03
2022-08-26T03:42:36.600Z,98326.31
2022-08-26T03:45:03.356Z,98318.16
2022-08-26T03:47:30.618Z,98324.44
2022-08-26T03:49:57.479Z,98328.56
2022-08-26T03:52:24.159Z,98326.00
2022-08-26T03:54:51.194Z,98322.31
2022-08-26T03:57:17.571Z,98325.25
2022-08-26T03:59:45.810Z,98318.31
2022-08-26T04:02:12.208Z,98317.97
2022-08-26T04:04:38.581Z,98322.00
2022-08-26T04:07:05.106Z,98321.22
2022-08-26T04:09:31.739Z,98314.59
2022-08-26T04:12:02.076Z,98311.63
2022-08-26T04:14:29.845Z,98314.22
2022-08-26T04:16:56.458Z,98316.00
2022-08-26T04:19:24.761Z,98310.44
2022-08-26T04:21:52.999Z,98321.47
2022-08-26T04:24:20.953Z,98322.22
2022-08-26T04:26:48.417Z,98318.53
2022-08-26T04:29:16.791Z,98310.03
2022-08-26T04:31:43.326Z,98309.97
2022-08-26T04:34:11.051Z,98318.38
2022-08-26T04:36:38.056Z,98315.97
2022-08-26T04:39:05.206Z,98312.53
2022-08-26T04:41:32.134Z,98310.38
2022-08-26T04:43:58.517Z,98317.28
2022-08-26T04:46:25.607Z,98311.59
2022-08-26T04:48:53.120Z,98312.47
2022-08-26T04:51:20.307Z,98315.09
2022-08-26T04:53:46.637Z,98311.22
2022-08-26T04:56:13.708Z,98313.97
2022-08-26T04:58:41.052Z,98311.91
2022-08-26T05:01:08.303Z,98311.91
2022-08-26T05:03:35.355Z,98308.38
2022-08-26T05:06:04.453Z,98312.31
2022-08-26T05:08:30.772Z,98319.78
2022-08-26T05:10:57.078Z,98313.97
2022-08-26T05:13:25.039Z,98315.09
2022-08-26T05:15:51.839Z,98324.13
2022-08-26T05:18:21.175Z,98311.66
2022-08-26T05:20:50.195Z,98320.22
2022-08-26T05:23:16.559Z,98327.25
2022-08-26T05:25:43.865Z,98323.84
2022-08-26T05:28:11.492Z,98329.47
2022-08-26T05:30:40.282Z,98328.53
2022-08-26T05:33:07.513Z,98328.34
2022-08-26T05:35:34.679Z,98322.31
2022-08-26T05:38:01.785Z,98328.38
2022-08-26T05:40:28.825Z,98321.47
2022-08-26T05:42:55.302Z,98326.22
2022-08-26T05:45:24.178Z,98330.94
2022-08-26T05:47:51.096Z,98327.50
2022-08-26T05:50:21.747Z,98326.72
2022-08-26T05:52:49.766Z,98326.47
2022-08-26T05:55:16.483Z,98325.97
2022-08-26T05:57:45.175Z,98328.09
2022-08-26T06:00:12.616Z,98327.63
2022-08-26T06:02:39.549Z,98324.41
2022-08-26T06:05:07.623Z,98327.09
2022-08-26T06:07:52.525Z,98322.81
2022-08-26T06:10:31.969Z,98319.44
2022-08-26T06:13:02.238Z,98321.72
2022-08-26T06:15:31.148Z,98314.88
2022-08-26T06:17:57.959Z,98316.34
2022-08-26T06:20:24.274Z,98322.56
2022-08-26T06:23:11.113Z,98318.31
2022-08-26T06:25:38.408Z,98316.72
2022-08-26T06:28:05.375Z,98310.66
2022-08-26T06:30:32.237Z,98319.59
2022-08-26T06:32:59.179Z,98310.09
2022-08-26T06:35:26.608Z,98302.66
2022-08-26T06:37:52.930Z,98302.63
2022-08-26T06:40:20.926Z,98300.44
2022-08-26T06:42:47.298Z,98300.53
2022-08-26T06:45:13.879Z,98299.53
2022-08-26T06:47:40.221Z,98298.50
2022-08-26T06:50:06.850Z,98299.88
2022-08-26T06:52:33.155Z,98294.09
2022-08-26T06:55:01.066Z,98289.97
2022-08-26T06:57:28.572Z,98293.59
2022-08-26T06:59:58.025Z,98294.38
2022-08-26T07:02:24.362Z,98291.31
2022-08-26T07:04:54.859Z,98295.38
2022-08-26T07:07:23.324Z,98292.03
2022-08-26T07:09:52.528Z,98287.25
2022-08-26T07:12:19.184Z,98284.66
2022-08-26T07:14:47.495Z,98289.47
2022-08-26T07:17:14.872Z,98289.22
2022-08-26T07:19:41.550Z,98285.94
2022-08-26T07:22:08.582Z,98291.13
2022-08-26T07:24:37.161Z,98292.56
2022-08-26T07:27:05.594Z,98296.28
2022-08-26T07:29:32.472Z,98285.66
2022-08-26T07:31:58.790Z,98288.88
2022-08-26T07:34:26.472Z,98282.16
2022-08-26T07:36:53.024Z,98287.13
2022-08-26T07:39:19.814Z,98275.25
2022-08-26T07:41:47.326Z,98279.84
2022-08-26T07:44:14.185Z,98278.75
2022-08-26T07:49:08.319Z,98275.41
2022-08-26T07:51:35.463Z,98275.09
2022-08-26T07:54:03.572Z,98279.09
2022-08-26T07:56:29.883Z,98273.53
2022-08-26T07:58:56.224Z,98275.84
2022-08-26T08:01:24.414Z,98269.94
2022-08-26T08:03:53.785Z,98267.59
2022-08-26T08:06:21.008Z,98263.78
2022-08-26T08:08:48.263Z,98264.63
2022-08-26T08:11:17.869Z,98265.25
2022-08-26T08:13:44.212Z,98267.31
2022-08-26T08:16:12.697Z,98261.91
2022-08-26T08:18:40.256Z,98262.66
2022-08-26T08:21:21.151Z,98263.06
2022-08-26T08:23:50.206Z,98255.66
2022-08-26T08:26:16.888Z,98252.88
2022-08-26T08:28:43.526Z,98253.06
2022-08-26T08:31:21.643Z,98257.94
2022-08-26T08:33:59.757Z,98253.63
2022-08-26T08:36:26.076Z,98249.47
2022-08-26T08:39:02.470Z,98243.44
2022-08-26T08:41:45.599Z,98240.28
2022-08-26T08:44:20.109Z,98239.34
2022-08-26T08:46:49.992Z,98241.06
2022-08-26T08:49:16.829Z,98236.78
2022-08-26T08:51:48.082Z,98229.63
2022-08-26T08:54:14.539Z,98234.34
2022-08-26T08:56:40.885Z,98232.22
2022-08-26T08:59:16.177Z,98232.00
2022-08-26T09:01:47.412Z,98222.50
2022-08-26T09:04:30.689Z,98219.16
2022-08-26T09:06:59.181Z,98220.09
2022-08-26T09:09:37.827Z,98218.38
2022-08-26T09:12:07.223Z,98223.31
2022-08-26T09:14:35.641Z,98205.34
2022-08-26T09:17:12.166Z,98218.31
2022-08-26T09:19:46.664Z,98215.28
2022-08-26T09:22:27.564Z,98211.38
2022-08-26T09:24:53.925Z,98207.00
2022-08-26T09:27:37.665Z,98208.50
2022-08-26T09:30:07.022Z,98208.56
2022-08-26T09:32:35.125Z,98196.00
2022-08-26T09:35:04.932Z,98203.78
2022-08-26T09:37:34.068Z,98193.28
2022-08-26T09:40:12.849Z,98193.28
2022-08-26T09:42:39.531Z,98207.94
2022-08-26T09:45:10.340Z,98206.31
2022-08-26T09:47:45.898Z,98203.28
2022-08-26T09:50:29.975Z,98212.72
2022-08-26T09:53:09.484Z,98212.06
2022-08-26T09:55:37.241Z,98208.63
2022-08-26T09:58:04.190Z,98205.69
2022-08-26T10:00:38.512Z,98208.50
2022-08-26T10:03:12.628Z,98199.38
2022-08-26T10:05:45.682Z,98192.84
2022-08-26T10:08:23.089Z,98193.56
2022-08-26T10:10:53.062Z,98192.88
2022-08-26T10:13:42.275Z,98189.16
2022-08-26T10:16:23.042Z,98191.31
2022-08-26T10:18:53.114Z,98180.03
2022-08-26T10:21:28.484Z,98167.38
2022-08-26T10:23:56.294Z,98161.72
2022-08-26T10:26:28.004Z,98165.44
2022-08-26T10:28:56.789Z,98158.22
2022-08-26T10:31:28.910Z,98159.25
2022-08-26T10:33:58.847Z,98152.53
2022-08-26T10:37:10.652Z,98154.88
2022-08-26T10:39:49.552Z,98160.28
2022-08-26T10:42:26.504Z,98167.09
2022-08-26T10:44:58.763Z,98172.16
2022-08-26T10:47:33.278Z,98185.06
2022-08-26T10:50:03.070Z,98174.19
2022-08-26T10:52:50.170Z,98182.81
2022-08-26T10:55:19.821Z,98213.88
2022-08-26T10:58:04.962Z,98214.34
2022-08-26T11:01:02.236Z,98228.47
2022-08-26T11:03:57.912Z,98259.31
2022-08-26T11:06:25.845Z,98298.84
2022-08-26T11:08:53.664Z,98317.84
2022-08-26T11:11:38.848Z,98348.22
2022-08-26T11:14:06.479Z,98296.75
2022-08-26T11:16:42.818Z,98258.38
2022-08-26T11:19:11.059Z,98231.06
2022-08-26T11:21:51.989Z,98220.59
2022-08-26T11:24:37.233Z,98193.47
2022-08-26T11:27:03.926Z,98184.00
2022-08-26T11:29:49.088Z,98188.38
2022-08-26T11:32:33.777Z,98175.19
2022-08-26T11:35:02.479Z,98164.75
2022-08-26T11:37:32.221Z,98153.28
2022-08-26T11:40:00.857Z,98145.28
2022-08-26T11:42:29.368Z,98142.25
2022-08-26T11:44:58.029Z,98130.88
2022-08-26T11:47:29.781Z,98125.81
2022-08-26T11:50:10.086Z,98117.06
2022-08-26T11:52:36.710Z,98108.03
2022-08-26T11:55:08.851Z,98113.00
2022-08-26T11:57:40.757Z,98107.72
2022-08-26T12:00:12.502Z,98114.00
2022-08-26T12:02:40.821Z,98110.84
2022-08-26T12:05:08.015Z,98103.03
2022-08-26T12:07:35.606Z,98098.59
2022-08-26T12:10:03.713Z,98097.34
2022-08-26T12:12:34.967Z,98099.94
2022-08-26T12:15:16.929Z,98090.25
2022-08-26T12:17:44.476Z,98091.09
2022-08-26T12:20:20.136Z,98088.69
2022-08-26T12:22:48.109Z,98082.03
2022-08-26T12:25:22.016Z,98077.31
2022-08-26T12:27:53.067Z,98071.22
2022-08-26T12:30:23.884Z,98065.06
2022-08-26T12:32:57.876Z,98061.22
2022-08-26T12:35:25.425Z,98055.16
2022-08-26T12:37:53.228Z,98050.56
2022-08-26T12:40:34.303Z,98047.69
2022-08-26T12:43:02.035Z,98048.47
2022-08-26T12:45:33.123Z,98055.66
2022-08-26T12:48:01.372Z,98049.00
2022-08-26T12:50:30.052Z,98049.22
2022-08-26T12:52:58.240Z,98056.09
2022-08-26T12:55:28.552Z,98047.41
2022-08-26T12:58:11.781Z,98056.69
2022-08-26T13:00:40.621Z,98049.94
2022-08-26T13:03:25.787Z,98050.56
2022-08-26T13:05:52.129Z,98066.44
2022-08-26T13:08:28.062Z,98055.94
2022-08-26T13:11:03.357Z,98054.63
2022-08-26T13:13:29.787Z,98051.72
2022-08-26T13:15:56.255Z,98050.88
2022-08-26T13:18:22.587Z,98050.72
2022-08-26T13:20:48.902Z,98047.00
2022-08-26T13:23:15.631Z,98036.59
2022-08-26T13:25:42.197Z,98040.63
2022-08-26T13:28:09.959Z,98023.72
2022-08-26T13:30:36.315Z,98012.13
2022-08-26T13:33:03.376Z,98013.91
2022-08-26T13:35:30.373Z,98015.91
2022-08-26T13:37:57.448Z,98014.13
2022-08-26T13:40:25.612Z,98016.25
2022-08-26T13:42:52.145Z,98018.13
2022-08-26T13:45:18.603Z,98028.56
2022-08-26T13:47:45.018Z,98030.34
2022-08-26T13:50:11.373Z,98031.50
2022-08-26T13:52:37.767Z,98009.56
2022-08-26T13:55:04.370Z,98000.69
2022-08-26T13:57:31.133Z,98004.41
2022-08-26T13:59:59.351Z,98003.19
2022-08-26T14:02:26.856Z,98004.88
2022-08-26T14:04:54.792Z,98012.41
2022-08-26T14:07:21.400Z,98011.72
2022-08-26T14:09:47.761Z,98002.66
2022-08-26T14:12:14.316Z,97997.16
2022-08-26T14:14:40.743Z,98000.84
2022-08-26T14:17:07.215Z,98001.88
2022-08-26T14:19:33.707Z,98007.63
2022-08-26T14:22:00.896Z,97993.34
2022-08-26T14:24:28.097Z,98014.63
2022-08-26T14:26:54.479Z,98011.53
2022-08-26T14:29:20.789Z,98021.44
2022-08-26T14:31:47.196Z,98015.31
2022-08-26T14:34:13.645Z,98021.66
2022-08-26T14:36:39.996Z,98024.13
2022-08-26T14:39:10.429Z,98023.41
2022-08-26T14:41:45.193Z,98026.91
2022-08-26T14:44:21.425Z,98049.75
2022-08-26T14:46:49.620Z,98063.78
2022-08-26T14:49:16.705Z,98076.78
2022-08-26T14:51:43.034Z,98054.06
2022-08-26T14:54:12.670Z,98026.16
2022-08-26T14:56:48.797Z,97992.81
2022-08-26T14:59:23.388Z,97995.28
2022-08-26T15:01:49.881Z,98010.72
2022-08-26T15:04:16.576Z,98032.19
2022-08-26T15:06:42.889Z,98052.78
2022-08-26T15:09:09.617Z,98096.13
2022-08-26T15:11:36.006Z,98111.25
2022-08-26T15:14:02.636Z,98116.72
2022-08-26T15:16:29.113Z,98102.03
2022-08-26T15:18:56.001Z,98077.94
2022-08-26T15:21:22.873Z,98061.28
2022-08-26T15:23:49.742Z,98060.53
2022-08-26T15:26:16.635Z,98074.28
2022-08-26T15:28:43.288Z,98094.25
2022-08-26T15:31:09.838Z,98087.38
2022-08-26T15:33:36.742Z,98068.97
2022-08-26T15:36:03.886Z,98049.03
2022-08-26T15:38:31.129Z,98062.88
2022-08-26T15:41:02.810Z,98094.94
2022-08-26T15:43:29.439Z,98101.34
2022-08-26T15:45:55.795Z,98101.94
2022-08-26T15:48:22.527Z,98099.59
2022-08-26T15:51:07.440Z,98091.22
2022-08-26T15:53:34.765Z,98080.22
2022-08-26T15:56:01.318Z,98067.34
2022-08-26T15:58:28.870Z,98044.41
2022-08-26T16:00:55.747Z,98021.03
2022-08-26T16:03:22.564Z,98009.78
2022-08-26T16:05:48.953Z,98026.59
2022-08-26T16:08:15.476Z,98046.25
2022-08-26T16:10:46.584Z,98066.31
2022-08-26T16:13:16.025Z,98075.03
2022-08-26T16:15:42.558Z,98083.59
2022-08-26T16:18:09.297Z,98086.81
2022-08-26T16:20:36.635Z,98080.22
2022-08-26T16:23:03.702Z,98075.22
2022-08-26T16:25:30.603Z,98076.47
2022-08-26T16:27:57.376Z,98068.09
2022-08-26T16:30:25.545Z,98060.94
2022-08-26T16:32:51.883Z,98068.28
2022-08-26T16:35:18.305Z,98065.72
2022-08-26T16:37:45.794Z,98060.53
2022-08-26T16:40:12.347Z,98069.34
2022-08-26T16:42:38.759Z,98056.50
2022-08-26T16:45:05.535Z,98044.81
2022-08-26T16:47:32.868Z,98036.25
2022-08-26T16:49:59.505Z,98039.38
2022-08-26T16:52:25.945Z,98050.59
2022-08-26T16:54:58.127Z,98045.03
2022-08-26T16:57:24.489Z,98030.16
2022-08-26T16:59:51.009Z,98025.28
2022-08-26T17:02:17.363Z,98023.72
2022-08-26T17:04:47.115Z,98016.38
2022-08-26T17:07:15.577Z,98012.06
2022-08-26T17:09:43.055Z,98017.94
2022-08-26T17:12:09.412Z,98034.06
2022-08-26T17:14:35.774Z,98030.25
2022-08-26T17:17:02.212Z,98034.56
2022-08-26T17:19:29.121Z,98040.88
2022-08-26T17:22:00.982Z,98025.81
2022-08-26T17:24:33.128Z,98019.59
2022-08-26T17:26:59.511Z,98006.66
2022-08-26T17:29:25.831Z,98016.38
2022-08-26T17:31:52.367Z,98013.78
2022-08-26T17:34:18.730Z,97998.81
2022-08-26T17:36:45.099Z,97991.34
2022-08-26T17:39:11.515Z,97988.13
2022-08-26T17:41:38.338Z,97980.09
2022-08-26T17:44:05.011Z,97991.13
2022-08-26T17:46:33.265Z,97983.91
2022-08-26T17:49:02.275Z,97983.91
2022-08-26T17:51:28.795Z,97983.22
2022-08-26T17:53:55.141Z,97989.63
2022-08-26T17:56:25.721Z,98001.91
2022-08-26T17:58:53.803Z,98016.59
2022-08-26T18:01:21.873Z,98032.50
2022-08-26T18:03:48.508Z,98034.19
2022-08-26T18:06:15.258Z,98033.56
2022-08-26T18:08:41.945Z,98030.25
2022-08-26T18:11:09.610Z,98020.53
2022-08-26T18:13:36.110Z,98016.81
2022-08-26T18:16:03.992Z,98018.78
2022-08-26T18:18:32.740Z,98017.22
2022-08-26T18:21:01.659Z,98014.00
2022-08-26T18:23:28.702Z,98011.81
2022-08-26T18:25:58.005Z,98011.75
2022-08-26T18:28:24.409Z,98023.22
2022-08-26T18:30:51.259Z,98033.34
2022-08-26T18:33:19.460Z,98045.56
2022-08-26T18:35:45.813Z,98039.47
2022-08-26T18:38:14.200Z,98053.72
2022-08-26T18:40:41.894Z,98067.47
2022-08-26T18:43:08.507Z,98074.41
2022-08-26T18:45:35.156Z,98077.06
2022-08-26T18:48:02.474Z,98075.16
2022-08-26T18:50:28.842Z,98081.47
2022-08-26T18:52:55.257Z,98082.41
2022-08-26T18:55:21.742Z,98083.81
2022-08-26T18:57:48.176Z,98086.91
2022-08-26T19:00:14.770Z,98084.19
2022-08-26T19:02:41.635Z,98089.47
2022-08-26T19:05:14.586Z,98074.06
2022-08-26T19:07:40.940Z,98076.13
2022-08-26T19:10:09.759Z,98107.41
2022-08-26T19:12:36.339Z,98126.97
2022-08-26T19:15:02.981Z,98109.00
2022-08-26T19:17:29.358Z,98105.69
2022-08-26T19:19:55.665Z,98091.06
2022-08-26T19:22:22.279Z,98076.19
2022-08-26T19:24:49.012Z,98059.53
2022-08-26T19:27:15.509Z,98048.50
2022-08-26T19:29:42.157Z,98046.22
2022-08-26T19:32:08.730Z,98041.38
2022-08-26T19:34:35.122Z,98047.59
2022-08-26T19:37:02.602Z,98036.81
2022-08-26T19:39:29.007Z,98039.41
2022-08-26T19:41:55.384Z,98030.50
2022-08-26T19:44:41.393Z,98031.56
2022-08-26T19:47:09.348Z,98023.81
2022-08-26T19:49:36.010Z,98018.31
2022-08-26T19:52:03.077Z,98016.16
2022-08-26T19:54:29.798Z,98020.09
2022-08-26T19:56:56.229Z,98007.78
2022-08-26T19:59:22.636Z,98019.69
2022-08-26T20:02:00.603Z,98023.81
2022-08-26T20:04:28.228Z,98030.44
2022-08-26T20:06:57.612Z,98022.69
2022-08-26T20:09:25.132Z,98028.16
2022-08-26T20:11:51.519Z,98036.22
2022-08-26T20:14:22.968Z,98034.97
2022-08-26T20:16:49.939Z,98039.09
2022-08-26T20:19:37.448Z,98049.44
2022-08-26T20:22:04.407Z,98041.56
2022-08-26T20:24:32.502Z,98043.75
2022-08-26T20:27:02.291Z,98048.41
2022-08-26T20:29:31.036Z,98054.06
2022-08-26T20:31:57.668Z,98044.34
2022-08-26T20:34:24.527Z,98044.94
2022-08-26T20:36:51.898Z,98055.81
2022-08-26T20:39:19.727Z,98045.34
2022-08-26T20:41:46.686Z,98050.09
2022-08-26T20:44:43.261Z,98057.50
2022-08-26T20:54:19.165Z,98060.50
2022-08-26T20:56:45.883Z,98053.06
2022-08-26T20:59:12.556Z,98058.31
2022-08-26T21:01:42.158Z,98053.28
2022-08-26T21:04:11.068Z,98046.16
2022-08-26T21:06:38.241Z,98048.66
2022-08-26T21:09:06.034Z,98039.06
2022-08-26T21:11:33.195Z,98038.13
2022-08-26T21:14:17.100Z,98039.19
2022-08-26T21:16:45.097Z,98031.16
2022-08-26T21:19:13.601Z,98021.91
2022-08-26T21:21:41.029Z,98024.22
2022-08-26T21:24:07.673Z,98020.69
2022-08-26T21:26:34.080Z,98018.81
2022-08-26T21:29:01.065Z,98022.94
2022-08-26T21:31:27.502Z,98026.91
2022-08-26T21:33:54.050Z,98019.78
2022-08-26T21:36:20.680Z,98025.50
2022-08-26T21:38:47.045Z,98015.59
2022-08-26T21:41:22.026Z,98017.03
2022-08-26T21:43:49.732Z,98016.56
2022-08-26T21:46:17.773Z,98016.56
2022-08-26T21:48:49.911Z,98013.59
2022-08-26T21:51:18.102Z,98015.81
2022-08-26T21:53:44.521Z,98012.94
2022-08-26T21:56:12.583Z,98013.66
2022-08-26T21:58:38.945Z,98009.69
2022-08-26T22:01:09.548Z,98012.59
2022-08-26T22:03:46.857Z,98009.00
2022-08-26T22:06:15.297Z,98000.28
2022-08-26T22:08:41.644Z,98006.34
2022-08-26T22:11:09.521Z,98005.28
2022-08-26T22:13:37.883Z,98001.50
2022-08-26T22:16:05.315Z,98002.22
2022-08-26T22:18:32.527Z,98002.97
2022-08-26T22:21:01.242Z,98014.56
2022-08-26T22:23:28.090Z,98013.75
2022-08-26T22:25:54.856Z,98009.28
2022-08-26T22:28:21.517Z,98013.50
2022-08-26T22:30:48.642Z,98014.25
2022-08-26T22:33:16.177Z,98020.53
2022-08-26T22:35:44.112Z,98017.56
2022-08-26T22:38:10.715Z,98014.56
2022-08-26T22:40:38.021Z,98014.16
2022-08-26T22:43:04.640Z,98010.44
2022-08-26T22:45:31.772Z,98018.19
2022-08-26T22:47:59.367Z,98015.19
2022-08-26T22:50:26.180Z,98022.28
2022-08-26T22:52:52.512Z,98035.81
2022-08-26T22:55:18.879Z,98045.97
2022-08-26T22:57:45.237Z,98051.28
2022-08-26T23:00:13.828Z,98061.94
2022-08-26T23:02:40.543Z,98070.91
2022-08-26T23:05:07.547Z,98081.66
2022-08-26T23:07:34.321Z,98076.94
2022-08-26T23:10:01.239Z,98075.03
2022-08-26T23:12:27.873Z,98073.22
2022-08-26T23:14:54.317Z,98066.72
2022-08-26T23:17:21.457Z,98060.84
2022-08-26T23:19:48.623Z,98069.00
2022-08-26T23:22:17.064Z,98063.88
2022-08-26T23:24:43.837Z,98058.72
2022-08-26T23:27:10.210Z,98051.88
2022-08-26T23:29:36.674Z,98055.44
2022-08-26T23:32:03.992Z,98056.88
2022-08-26T23:34:48.897Z,98053.34
2022-08-26T23:37:15.625Z,98054.56
2022-08-26T23:39:41.996Z,98053.91
2022-08-26T23:42:08.565Z,98063.41
2022-08-26T23:44:35.011Z,98066.72
2022-08-26T23:47:01.699Z,98066.41
2022-08-26T23:49:28.682Z,98068.91
2022-08-26T23:52:13.463Z,98071.78
2022-08-26T23:54:40.274Z,98066.22
2022-08-26T23:57:07.175Z,98061.97
2022-08-26T23:59:33.980Z,98061.25
